createdAt,value
2023-04-07T00:02:01.518Z,88.23
2023-04-07T00:04:31.407Z,87.90
2023-04-07T00:07:00.333Z,87.69
2023-04-07T00:09:30.764Z,86.99
2023-04-07T00:12:01.415Z,86.89
2023-04-07T00:14:32.798Z,86.21
2023-04-07T00:17:02.773Z,85.79
2023-04-07T00:19:33.815Z,85.77
2023-04-07T00:22:03.443Z,85.55
2023-04-07T00:24:35.012Z,85.66
2023-04-07T00:27:04.172Z,85.27
2023-04-07T00:29:34.230Z,84.77
2023-04-07T00:32:06.254Z,84.30
2023-04-07T00:34:35.514Z,84.33
2023-04-07T00:37:06.490Z,84.27
2023-04-07T00:39:36.898Z,84.17
2023-04-07T00:42:07.187Z,84.56
2023-04-07T00:44:36.039Z,84.75
2023-04-07T00:47:05.257Z,84.95
2023-04-07T00:49:35.168Z,84.94
2023-04-07T00:52:05.215Z,85.15
2023-04-07T00:54:36.678Z,85.50
2023-04-07T00:57:06.133Z,85.60
2023-04-07T00:59:36.263Z,85.82
2023-04-07T01:02:20.278Z,86.31
2023-04-07T01:05:28.308Z,86.57
2023-04-07T01:08:21.749Z,86.62
2023-04-07T01:11:10.332Z,86.47
2023-04-07T01:13:50.206Z,86.19
2023-04-07T01:16:31.405Z,85.72
2023-04-07T01:19:40.437Z,85.54
2023-04-07T01:22:18.062Z,85.43
2023-04-07T01:25:28.900Z,84.40
2023-04-07T01:28:03.801Z,83.82
2023-04-07T01:30:35.082Z,83.76
2023-04-07T01:33:04.633Z,83.33
2023-04-07T01:35:36.050Z,83.23
2023-04-07T01:38:06.022Z,83.20
2023-04-07T01:40:35.952Z,82.68
2023-04-07T01:43:05.229Z,82.58
2023-04-07T01:45:36.195Z,82.35
2023-04-07T01:48:08.828Z,81.75
2023-04-07T01:50:38.735Z,81.60
2023-04-07T01:53:07.792Z,81.00
2023-04-07T01:55:37.081Z,80.95
2023-04-07T01:58:12.063Z,80.74
2023-04-07T02:00:44.938Z,79.79
2023-04-07T02:03:24.505Z,79.24
2023-04-07T02:05:57.126Z,79.14
2023-04-07T02:08:29.180Z,79.25
2023-04-07T02:11:01.152Z,79.60
2023-04-07T02:13:32.632Z,79.53
2023-04-07T02:16:02.505Z,79.64
2023-04-07T02:18:33.986Z,79.03
2023-04-07T02:21:03.491Z,78.84
2023-04-07T02:23:34.859Z,79.31
2023-04-07T02:26:05.227Z,78.94
2023-04-07T02:28:34.150Z,79.04
2023-04-07T02:31:02.957Z,79.12
2023-04-07T02:33:34.825Z,79.31
2023-04-07T02:36:04.423Z,78.77
2023-04-07T02:38:33.817Z,78.54
2023-04-07T02:41:03.131Z,78.17
2023-04-07T02:43:32.621Z,78.21
2023-04-07T02:46:02.810Z,78.12
2023-04-07T02:48:33.692Z,77.79
2023-04-07T02:51:02.907Z,78.25
2023-04-07T02:53:33.515Z,78.37
2023-04-07T02:56:02.819Z,78.40
2023-04-07T02:58:32.137Z,78.73
2023-04-07T03:01:01.147Z,78.92
2023-04-07T03:03:33.017Z,78.91
2023-04-07T03:06:10.798Z,79.25
2023-04-07T03:08:42.444Z,79.59
2023-04-07T03:11:13.173Z,79.53
2023-04-07T03:13:42.876Z,79.85
2023-04-07T03:16:13.816Z,80.00
2023-04-07T03:18:46.071Z,79.94
2023-04-07T03:21:15.758Z,80.06
2023-04-07T03:23:46.420Z,80.26
2023-04-07T03:26:17.473Z,80.44
2023-04-07T03:28:46.550Z,80.44
2023-04-07T03:31:16.718Z,80.51
2023-04-07T03:33:46.404Z,80.77
2023-04-07T03:36:18.321Z,80.75
2023-04-07T03:38:47.975Z,80.62
2023-04-07T03:41:17.807Z,80.29
2023-04-07T03:43:47.127Z,80.29
2023-04-07T03:46:16.769Z,80.10
2023-04-07T03:48:47.307Z,79.67
2023-04-07T03:51:17.658Z,79.80
2023-04-07T03:53:48.661Z,80.21
2023-04-07T03:56:25.673Z,80.24
2023-04-07T03:58:57.592Z,80.17
2023-04-07T04:01:29.212Z,80.24
2023-04-07T04:03:59.149Z,80.11
2023-04-07T04:06:31.290Z,80.07
2023-04-07T04:09:02.160Z,80.11
2023-04-07T04:11:33.689Z,80.27
2023-04-07T04:14:06.876Z,80.45
2023-04-07T04:16:37.942Z,80.44
2023-04-07T04:19:08.654Z,80.51
2023-04-07T04:21:39.349Z,80.42
2023-04-07T04:24:09.424Z,80.37
2023-04-07T04:26:39.328Z,80.29
2023-04-07T04:29:10.982Z,80.40
2023-04-07T04:31:42.108Z,80.28
2023-04-07T04:34:13.067Z,80.03
2023-04-07T04:36:45.095Z,80.22
2023-04-07T04:39:14.676Z,80.41
2023-04-07T04:41:45.382Z,80.48
2023-04-07T04:44:14.696Z,80.41
2023-04-07T04:46:45.191Z,80.60
2023-04-07T04:49:15.752Z,80.52
2023-04-07T04:51:46.409Z,80.59
2023-04-07T04:54:18.455Z,80.54
2023-04-07T04:56:48.231Z,80.53
2023-04-07T04:59:19.497Z,80.52
2023-04-07T05:01:56.558Z,80.38
2023-04-07T05:04:26.070Z,80.31
2023-04-07T05:06:56.985Z,80.43
2023-04-07T05:09:29.823Z,80.40
2023-04-07T05:12:01.365Z,80.32
2023-04-07T05:14:32.321Z,79.80
2023-04-07T05:17:05.329Z,79.70
2023-04-07T05:19:35.215Z,79.63
2023-04-07T05:22:06.689Z,79.38
2023-04-07T05:24:39.156Z,79.36
2023-04-07T05:27:08.376Z,79.65
2023-04-07T05:29:37.572Z,79.65
2023-04-07T05:32:08.541Z,79.37
2023-04-07T05:34:40.216Z,79.09
2023-04-07T05:37:09.780Z,79.08
2023-04-07T05:39:40.833Z,79.19
2023-04-07T05:42:11.119Z,79.18
2023-04-07T05:44:43.150Z,79.04
2023-04-07T05:47:12.798Z,78.92
2023-04-07T05:49:46.539Z,79.00
2023-04-07T05:52:16.694Z,78.84
2023-04-07T05:54:48.527Z,78.43
2023-04-07T05:57:18.806Z,78.29
2023-04-07T05:59:49.877Z,78.32
2023-04-07T06:02:19.512Z,78.10
2023-04-07T06:04:50.492Z,78.26
2023-04-07T06:07:20.258Z,78.11
2023-04-07T06:09:49.635Z,78.12
2023-04-07T06:12:18.609Z,78.06
2023-04-07T06:14:52.942Z,78.18
2023-04-07T06:17:25.209Z,77.94
2023-04-07T06:19:54.331Z,77.58
2023-04-07T06:22:23.481Z,77.88
2023-04-07T06:24:53.947Z,77.70
2023-04-07T06:27:23.228Z,77.49
2023-04-07T06:29:52.553Z,76.92
2023-04-07T06:32:22.459Z,76.62
2023-04-07T06:34:52.361Z,76.52
2023-04-07T06:37:25.348Z,76.00
2023-04-07T06:39:55.526Z,75.87
2023-04-07T06:42:25.809Z,75.97
2023-04-07T06:44:57.099Z,76.22
2023-04-07T06:47:27.203Z,75.81
2023-04-07T06:49:57.755Z,75.80
2023-04-07T06:52:26.634Z,75.26
2023-04-07T06:54:56.711Z,75.42
2023-04-07T06:57:26.360Z,75.52
2023-04-07T06:59:56.471Z,75.19
2023-04-07T07:02:26.634Z,74.54
2023-04-07T07:04:56.259Z,74.23
2023-04-07T07:07:25.999Z,74.09
2023-04-07T07:09:55.296Z,74.07
2023-04-07T07:12:24.594Z,73.84
2023-04-07T07:14:54.908Z,73.31
2023-04-07T07:17:24.125Z,72.97
2023-04-07T07:19:54.847Z,73.30
2023-04-07T07:22:23.984Z,73.19
2023-04-07T07:24:55.523Z,72.97
2023-04-07T07:27:24.691Z,73.11
2023-04-07T07:29:53.506Z,72.89
2023-04-07T07:32:22.444Z,72.41
2023-04-07T07:34:51.344Z,72.37
2023-04-07T07:37:20.282Z,72.34
2023-04-07T07:39:49.499Z,72.77
2023-04-07T07:42:19.503Z,71.72
2023-04-07T07:44:49.083Z,71.46
2023-04-07T07:47:18.724Z,71.75
2023-04-07T07:49:47.785Z,71.28
2023-04-07T07:52:17.880Z,71.29
2023-04-07T07:54:47.779Z,70.71
2023-04-07T07:57:17.037Z,68.91
2023-04-07T07:59:46.421Z,68.37
2023-04-07T08:02:15.847Z,68.13
2023-04-07T08:04:45.101Z,68.58
2023-04-07T08:07:14.136Z,66.71
2023-04-07T08:09:43.989Z,67.60
2023-04-07T08:12:13.351Z,70.84
2023-04-07T08:14:42.611Z,62.91
2023-04-07T08:17:12.566Z,64.19
2023-04-07T08:19:44.240Z,64.72
2023-04-07T08:22:13.390Z,63.91
2023-04-07T08:24:42.927Z,62.02
2023-04-07T08:27:12.140Z,60.42
2023-04-07T08:29:43.181Z,58.86
2023-04-07T08:32:12.928Z,56.40
2023-04-07T08:34:42.206Z,56.75
2023-04-07T08:37:12.250Z,52.51
2023-04-07T08:39:42.019Z,51.69
2023-04-07T08:42:11.478Z,53.45
2023-04-07T08:44:40.881Z,54.96
2023-04-07T08:47:11.492Z,54.21
2023-04-07T08:49:40.674Z,53.81
2023-04-07T08:52:12.364Z,53.26
2023-04-07T08:54:42.146Z,52.27
2023-04-07T08:57:11.569Z,52.15
2023-04-07T08:59:43.913Z,52.20
2023-04-07T09:02:13.162Z,51.87
2023-04-07T09:04:45.874Z,51.55
2023-04-07T09:07:15.512Z,51.55
2023-04-07T09:09:45.723Z,50.43
2023-04-07T09:12:15.493Z,50.71
2023-04-07T09:14:44.632Z,49.77
2023-04-07T09:17:15.058Z,51.36
2023-04-07T09:19:44.501Z,52.74
2023-04-07T09:22:15.635Z,53.05
2023-04-07T09:24:46.787Z,52.90
2023-04-07T09:27:21.081Z,52.57
2023-04-07T09:29:51.092Z,52.19
2023-04-07T09:32:39.272Z,52.90
2023-04-07T09:35:09.406Z,53.22
2023-04-07T09:37:38.572Z,52.05
2023-04-07T09:40:09.027Z,52.05
2023-04-07T09:42:48.294Z,52.67
2023-04-07T09:45:34.514Z,52.94
2023-04-07T09:47:59.790Z,53.57
2023-04-07T09:50:37.768Z,53.63
2023-04-07T09:53:09.377Z,53.07
2023-04-07T09:55:40.318Z,53.88
2023-04-07T09:58:09.607Z,54.35
2023-04-07T10:00:39.875Z,53.38
2023-04-07T10:03:12.487Z,53.74
2023-04-07T10:28:03.204Z,51.83
2023-04-07T10:30:33.683Z,51.43
2023-04-07T10:33:05.547Z,51.28
2023-04-07T10:36:05.980Z,51.82
2023-04-07T10:38:35.264Z,52.27
2023-04-07T10:41:39.989Z,52.64
2023-04-07T10:44:11.494Z,52.64
2023-04-07T10:46:55.979Z,52.66
2023-04-07T10:49:24.662Z,52.30
2023-04-07T10:52:16.707Z,52.28
2023-04-07T10:54:47.053Z,52.90
2023-04-07T10:57:16.807Z,52.27
2023-04-07T11:00:13.772Z,52.35
2023-04-07T11:02:45.022Z,52.25
2023-04-07T11:05:25.244Z,52.63
2023-04-07T11:07:57.502Z,52.50
2023-04-07T11:10:28.608Z,51.74
2023-04-07T11:13:05.137Z,51.39
2023-04-07T11:15:40.435Z,51.94
2023-04-07T11:18:18.428Z,51.35
2023-04-07T11:20:58.824Z,51.77
2023-04-07T11:23:29.538Z,52.59
2023-04-07T11:26:02.658Z,51.80
2023-04-07T11:28:32.336Z,51.95
2023-04-07T11:31:02.686Z,52.54
2023-04-07T11:33:32.371Z,53.04
2023-04-07T11:36:02.632Z,52.24
2023-04-07T11:38:39.287Z,52.15
2023-04-07T11:41:14.159Z,52.09
2023-04-07T11:43:43.084Z,51.82
2023-04-07T11:46:17.366Z,52.52
2023-04-07T11:48:48.384Z,52.04
2023-04-07T11:51:19.537Z,53.02
2023-04-07T11:53:49.155Z,52.93
2023-04-07T11:56:18.427Z,51.75
2023-04-07T11:58:53.262Z,51.67
2023-04-07T12:01:24.095Z,51.23
2023-04-07T12:03:59.932Z,50.79
2023-04-07T12:06:42.283Z,50.21
2023-04-07T12:09:34.084Z,50.99
2023-04-07T12:12:08.841Z,51.09
2023-04-07T12:14:43.917Z,51.34
2023-04-07T12:17:23.771Z,51.24
2023-04-07T12:19:53.278Z,52.04
2023-04-07T12:22:22.998Z,51.09
2023-04-07T12:24:52.093Z,51.38
2023-04-07T12:27:32.679Z,51.30
2023-04-07T12:29:54.390Z,50.71
2023-04-07T12:32:23.406Z,50.43
2023-04-07T12:34:53.002Z,50.69
2023-04-07T12:37:22.286Z,49.45
2023-04-07T12:39:51.109Z,50.01
2023-04-07T12:42:20.553Z,50.52
2023-04-07T12:44:49.510Z,50.20
2023-04-07T12:47:18.372Z,49.05
2023-04-07T12:49:49.868Z,49.18
2023-04-07T12:52:19.384Z,49.24
2023-04-07T12:54:49.378Z,48.76
2023-04-07T12:57:18.708Z,49.71
2023-04-07T12:59:48.701Z,49.48
2023-04-07T13:02:19.388Z,49.62
2023-04-07T13:04:49.136Z,49.98
2023-04-07T13:07:18.030Z,49.58
2023-04-07T13:09:47.560Z,49.87
2023-04-07T13:12:16.455Z,49.19
2023-04-07T13:14:59.318Z,49.17
2023-04-07T13:17:23.116Z,48.32
2023-04-07T13:19:52.620Z,49.29
2023-04-07T13:22:24.334Z,49.43
2023-04-07T13:24:53.898Z,50.13
2023-04-07T13:27:23.554Z,50.42
2023-04-07T13:29:52.879Z,49.36
2023-04-07T13:32:23.916Z,49.24
2023-04-07T13:34:53.747Z,48.80
2023-04-07T13:37:32.176Z,49.34
2023-04-07T13:40:19.147Z,48.95
2023-04-07T13:42:50.189Z,48.64
2023-04-07T13:45:23.357Z,49.11
2023-04-07T13:47:56.727Z,49.70
2023-04-07T13:50:26.061Z,49.26
2023-04-07T13:52:56.055Z,49.55
2023-04-07T13:55:24.881Z,48.47
2023-04-07T13:57:53.915Z,48.57
2023-04-07T14:00:23.422Z,48.93
2023-04-07T14:02:53.856Z,48.20
2023-04-07T14:05:23.380Z,47.70
2023-04-07T14:07:54.364Z,48.69
2023-04-07T14:10:24.564Z,49.16
2023-04-07T14:12:53.654Z,49.12
2023-04-07T14:15:23.684Z,49.17
2023-04-07T14:17:53.825Z,49.97
2023-04-07T14:20:24.206Z,50.39
2023-04-07T14:22:54.658Z,51.40
2023-04-07T14:25:23.741Z,51.55
2023-04-07T14:27:53.370Z,51.44
2023-04-07T14:30:23.396Z,50.85
2023-04-07T14:32:55.857Z,51.64
2023-04-07T14:35:30.043Z,51.67
2023-04-07T14:37:59.250Z,51.82
2023-04-07T14:40:29.601Z,51.92
2023-04-07T14:45:30.002Z,51.62
2023-04-07T14:48:00.321Z,51.65
2023-04-07T14:50:29.217Z,51.84
2023-04-07T14:52:58.183Z,51.65
2023-04-07T14:55:27.864Z,51.70
2023-04-07T14:57:56.968Z,51.59
2023-04-07T15:00:26.990Z,51.31
2023-04-07T15:02:58.001Z,51.25
2023-04-07T15:05:28.480Z,51.18
2023-04-07T15:07:58.469Z,51.60
2023-04-07T15:10:27.837Z,51.57
2023-04-07T15:12:56.898Z,52.11
2023-04-07T15:15:27.108Z,52.44
2023-04-07T15:17:56.327Z,52.22
2023-04-07T15:20:26.265Z,51.77
2023-04-07T15:22:57.031Z,51.93
2023-04-07T15:25:26.659Z,51.62
2023-04-07T15:27:55.417Z,51.22
2023-04-07T15:30:24.423Z,50.97
2023-04-07T15:33:00.335Z,51.57
2023-04-07T15:35:30.886Z,51.03
2023-04-07T15:38:00.257Z,50.06
2023-04-07T15:40:29.344Z,50.47
2023-04-07T15:42:58.241Z,50.96
2023-04-07T15:45:27.200Z,50.73
2023-04-07T15:47:56.351Z,50.92
2023-04-07T15:50:25.271Z,51.52
2023-04-07T15:52:54.571Z,52.71
2023-04-07T15:55:23.676Z,52.83
2023-04-07T15:57:53.294Z,52.19
2023-04-07T16:00:23.172Z,51.87
2023-04-07T16:02:54.774Z,50.56
2023-04-07T16:05:24.844Z,50.98
2023-04-07T16:07:56.014Z,51.48
2023-04-07T16:10:26.093Z,52.21
2023-04-07T16:12:56.202Z,51.80
2023-04-07T16:15:38.652Z,51.79
2023-04-07T16:17:56.823Z,52.11
2023-04-07T16:20:26.404Z,51.24
2023-04-07T16:22:55.884Z,50.70
2023-04-07T16:25:26.554Z,51.79
2023-04-07T16:27:56.876Z,50.81
2023-04-07T16:30:27.830Z,51.08
2023-04-07T16:32:59.996Z,50.76
2023-04-07T16:35:31.165Z,51.21
2023-04-07T16:38:03.563Z,51.18
2023-04-07T16:40:32.944Z,51.81
2023-04-07T16:43:01.936Z,52.22
2023-04-07T16:45:31.955Z,52.02
2023-04-07T16:48:02.628Z,51.82
2023-04-07T16:50:33.605Z,50.78
2023-04-07T16:53:02.481Z,50.88
2023-04-07T16:55:37.804Z,51.27
2023-04-07T16:58:07.423Z,52.03
2023-04-07T17:00:36.361Z,52.68
2023-04-07T17:03:07.237Z,52.52
2023-04-07T17:05:38.150Z,52.49
2023-04-07T17:08:07.254Z,52.73
2023-04-07T17:10:39.089Z,52.52
2023-04-07T17:13:10.248Z,52.74
2023-04-07T17:15:39.247Z,53.51
2023-04-07T17:18:09.597Z,52.99
2023-04-07T17:20:39.259Z,54.56
2023-04-07T17:23:10.401Z,53.88
2023-04-07T17:25:40.662Z,54.33
2023-04-07T17:28:09.683Z,53.80
2023-04-07T17:30:39.733Z,53.83
2023-04-07T17:33:09.097Z,54.50
2023-04-07T17:35:37.901Z,54.11
2023-04-07T17:38:09.823Z,54.17
2023-04-07T17:40:39.127Z,54.94
2023-04-07T17:43:08.638Z,55.01
2023-04-07T17:45:37.746Z,54.88
2023-04-07T17:48:08.594Z,56.10
2023-04-07T17:50:39.277Z,56.13
2023-04-07T17:53:08.297Z,56.09
2023-04-07T17:55:37.076Z,55.74
2023-04-07T17:58:06.892Z,56.61
2023-04-07T18:00:35.768Z,57.12
2023-04-07T18:03:07.143Z,57.91
2023-04-07T18:05:37.049Z,57.50
2023-04-07T18:08:05.839Z,57.70
2023-04-07T18:10:35.833Z,58.09
2023-04-07T18:13:06.901Z,58.44
2023-04-07T18:15:36.074Z,57.92
2023-04-07T18:18:06.346Z,58.30
2023-04-07T18:20:36.033Z,58.33
2023-04-07T18:23:06.245Z,58.94
2023-04-07T18:25:35.748Z,59.34
2023-04-07T18:28:04.535Z,59.49
2023-04-07T18:30:35.312Z,59.12
2023-04-07T18:33:05.260Z,59.16
2023-04-07T18:35:35.743Z,59.55
2023-04-07T18:38:05.131Z,60.15
2023-04-07T18:40:37.088Z,60.37
2023-04-07T18:43:06.077Z,60.85
2023-04-07T18:45:37.321Z,60.84
2023-04-07T18:48:07.337Z,60.90
2023-04-07T18:50:37.954Z,61.09
2023-04-07T18:53:08.358Z,61.51
2023-04-07T18:55:37.909Z,61.95
2023-04-07T18:58:08.418Z,62.02
2023-04-07T19:00:37.750Z,61.94
2023-04-07T19:03:07.404Z,62.55
2023-04-07T19:05:40.217Z,63.49
2023-04-07T19:08:11.420Z,63.58
2023-04-07T19:10:41.504Z,63.96
2023-04-07T19:13:10.386Z,63.93
2023-04-07T19:15:42.596Z,64.30
2023-04-07T19:18:13.619Z,64.44
2023-04-07T19:20:42.610Z,64.67
2023-04-07T19:23:11.753Z,64.64
2023-04-07T19:25:42.915Z,64.61
2023-04-07T19:28:14.803Z,65.28
2023-04-07T19:30:43.864Z,65.22
2023-04-07T19:33:14.430Z,65.52
2023-04-07T19:35:44.802Z,65.47
2023-04-07T19:38:13.952Z,65.39
2023-04-07T19:40:42.849Z,65.43
2023-04-07T19:43:11.645Z,66.21
2023-04-07T19:45:41.614Z,66.24
2023-04-07T19:48:11.048Z,66.25
2023-04-07T19:50:41.654Z,66.12
2023-04-07T19:53:18.321Z,66.11
2023-04-07T19:55:52.597Z,66.22
2023-04-07T19:58:22.769Z,66.69
2023-04-07T20:00:54.357Z,67.25
2023-04-07T20:03:25.345Z,67.63
2023-04-07T20:05:54.296Z,68.55
2023-04-07T20:08:27.672Z,68.92
2023-04-07T20:10:56.712Z,69.21
2023-04-07T20:13:29.831Z,69.54
2023-04-07T20:15:59.813Z,69.71
2023-04-07T20:18:28.641Z,70.01
2023-04-07T20:21:02.201Z,70.17
2023-04-07T20:23:33.349Z,70.38
2023-04-07T20:26:02.528Z,70.78
2023-04-07T20:28:32.383Z,71.39
2023-04-07T20:31:01.808Z,71.62
2023-04-07T20:33:31.472Z,72.01
2023-04-07T20:36:00.714Z,72.41
2023-04-07T20:38:30.348Z,72.68
2023-04-07T20:41:01.953Z,72.95
2023-04-07T20:43:32.290Z,73.23
2023-04-07T20:46:04.949Z,73.67
2023-04-07T20:48:34.664Z,73.71
2023-04-07T20:51:03.872Z,73.87
2023-04-07T20:53:32.665Z,74.05
2023-04-07T20:56:02.930Z,74.16
2023-04-07T20:58:32.273Z,74.22
2023-04-07T21:01:01.547Z,74.12
2023-04-07T21:03:31.896Z,74.02
2023-04-07T21:06:01.410Z,74.07
2023-04-07T21:08:31.427Z,74.21
2023-04-07T21:11:01.242Z,74.28
2023-04-07T21:13:30.686Z,74.28
2023-04-07T21:16:01.559Z,74.28
2023-04-07T21:18:31.714Z,74.27
2023-04-07T21:21:02.131Z,74.32
2023-04-07T21:23:32.474Z,74.38
2023-04-07T21:26:02.838Z,74.48
2023-04-07T21:28:33.382Z,74.59
2023-04-07T21:31:04.826Z,74.59
2023-04-07T21:33:34.166Z,74.54
2023-04-07T21:36:04.187Z,74.51
2023-04-07T21:38:34.100Z,74.63
2023-04-07T21:41:03.171Z,74.74
2023-04-07T21:43:34.512Z,74.84
2023-04-07T21:46:05.054Z,74.94
2023-04-07T21:48:34.909Z,74.97
2023-04-07T21:51:05.015Z,75.01
2023-04-07T21:53:38.569Z,75.11
2023-04-07T21:56:09.411Z,75.29
2023-04-07T21:58:40.851Z,75.35
2023-04-07T22:01:10.521Z,75.19
2023-04-07T22:03:42.159Z,75.21
2023-04-07T22:06:11.662Z,75.09
2023-04-07T22:08:44.312Z,75.00
2023-04-07T22:11:14.627Z,75.05
2023-04-07T22:13:43.982Z,74.85
2023-04-07T22:16:13.253Z,74.61
2023-04-07T22:18:41.921Z,74.42
2023-04-07T22:21:10.836Z,74.16
2023-04-07T22:23:39.790Z,73.96
2023-04-07T22:26:10.309Z,73.95
2023-04-07T22:28:39.896Z,73.68
2023-04-07T22:31:08.591Z,73.47
2023-04-07T22:33:39.284Z,73.62
2023-04-07T22:36:08.226Z,73.64
2023-04-07T22:38:37.918Z,73.84
2023-04-07T22:41:07.061Z,73.89
2023-04-07T22:43:36.145Z,73.66
2023-04-07T22:46:05.627Z,73.59
2023-04-07T22:48:34.628Z,73.50
2023-04-07T22:51:05.353Z,73.52
2023-04-07T22:53:35.681Z,73.56
2023-04-07T22:56:07.490Z,73.64
2023-04-07T22:58:36.348Z,73.81
2023-04-07T23:01:06.476Z,73.88
2023-04-07T23:03:36.967Z,73.93
2023-04-07T23:06:06.518Z,74.12
2023-04-07T23:08:35.700Z,74.19
2023-04-07T23:11:11.116Z,74.30
2023-04-07T23:13:43.104Z,74.39
2023-04-07T23:16:14.182Z,74.54
2023-04-07T23:18:43.947Z,74.75
2023-04-07T23:21:13.329Z,74.80
2023-04-07T23:23:42.185Z,75.00
2023-04-07T23:26:13.043Z,74.94
2023-04-07T23:28:42.006Z,74.84
2023-04-07T23:31:12.209Z,74.89
2023-04-07T23:33:41.434Z,75.03
2023-04-07T23:36:12.147Z,75.13
2023-04-07T23:38:42.777Z,75.36
2023-04-07T23:41:11.814Z,75.68
2023-04-07T23:43:41.181Z,76.11
2023-04-07T23:46:09.777Z,76.53
2023-04-07T23:48:40.115Z,76.98
2023-04-07T23:51:09.029Z,77.36
2023-04-07T23:53:39.306Z,77.72
2023-04-07T23:56:08.569Z,78.09
2023-04-07T23:58:37.384Z,78.42
